This is the latest recevied weather packets stored in our database for station/object KD9IXX-13. If no packets are shown the sender has not sent any weather packets the latest 10 day(s).
| Time | Temp. | Humidity | Pressure | Rain* | Wind** | Luminosity | Snow |
|---|---|---|---|---|---|---|---|
| 1777840502 | 16.67° C | 51% | 1010.5 hPa | 0 mm | - | 144 W/m² | - |
| 1777840202 | 16.67° C | 50% | 1010.6 hPa | 0 mm | - | 161 W/m² | - |
| 1777839902 | 17.22° C | 49% | 1010.8 hPa | 0 mm | - | 212 W/m² | - |
| 1777839602 | 18.33° C | 47% | 1010.9 hPa | 0 mm | - | 313 W/m² | - |
| 1777839302 | 18.89° C | 48% | 1010.9 hPa | 0 mm | - | 644 W/m² | - |
| 1777839001 | 18.33° C | 50% | 1010.7 hPa | 0 mm | - | 717 W/m² | - |
| 1777838702 | 17.22° C | 48% | 1010.7 hPa | 0 mm | - | 422 W/m² | - |
| 1777838402 | 17.22° C | 49% | 1011.1 hPa | 0 mm | - | 361 W/m² | - |
| 1777838102 | 16.67° C | 50% | 1011.2 hPa | 0 mm | - | 311 W/m² | - |
| 1777837802 | 17.22° C | 48% | 1011.1 hPa | 0 mm | - | 206 W/m² | - |
| 1777837502 | 17.78° C | 51% | 1011.1 hPa | 0 mm | - | 696 W/m² | - |
| 1777837202 | 17.78° C | 50% | 1011.2 hPa | 0 mm | - | 679 W/m² | - |
| 1777836902 | 17.22° C | 50% | 1011.3 hPa | 0 mm | - | 643 W/m² | - |
| 1777836602 | 17.78° C | 50% | 1011.7 hPa | 0 mm | - | 656 W/m² | - |
| 1777836302 | 17.22° C | 51% | 1011.5 hPa | 0 mm | - | 680 W/m² | - |
| 1777836002 | 16.67° C | 53% | 1011.7 hPa | 0 mm | - | 682 W/m² | - |
| 1777835702 | 16.67° C | 53% | 1011.5 hPa | 0 mm | - | 691 W/m² | - |
| 1777835403 | 16.67° C | 54% | 1011.6 hPa | 0 mm | - | 668 W/m² | - |
| 1777835102 | 16.67° C | 55% | 1011.9 hPa | 0 mm | - | 693 W/m² | - |
| 1777834802 | 16.67° C | 53% | 1012 hPa | 0 mm | - | 693 W/m² | - |
| 1777834502 | 16.67° C | 59% | 1011.9 hPa | 0 mm | - | 649 W/m² | - |
| 1777834202 | 15.56° C | 61% | 1012.2 hPa | 0 mm | - | 624 W/m² | - |
| 1777833902 | 15.56° C | 65% | 1012.5 hPa | 0 mm | - | 702 W/m² | - |
| 1777833602 | 15° C | 67% | 1012.3 hPa | 0 mm | - | 658 W/m² | - |
| 1777833302 | 15° C | 71% | 1012.2 hPa | 0 mm | - | 649 W/m² | - |
* Rain latest hour (hover to see other rain measurements)
** Current wind speed in m/s (hover to see current wind gust speed)